Vidnoe — UBDU — position and weather

sailwx.info

Track history (hours):
 
Tides and Currents Weather Stations Pressure Air Temp Water Temp Dewpoint Dewpoint Depression Visibility Wind Speed Wind Dir Waves Ship Positions

Vidnoe

Last reported at 2017-Feb-21 22:33 UTC. Time now 2017-Feb-21 23:32 UTC.
Position N 59°52' E 030°13'.

Length 115 m; beam 17 m.

Type: Tanker. MMSI: 273516400.

Date/timePositionNaut miles runAvg speedWind from/ knotsBaromVisibWave heightAir tempDewpointWater temp
2017-Feb-21 22:33N 59°52' E 030°13'0 0.0
2017-Feb-21 21:33N 59°52' E 030°13'0 0.0
2017-Feb-21 20:33N 59°52' E 030°13'0 0.0
2017-Feb-21 19:33N 59°52' E 030°13'0 0.0
2017-Feb-21 18:33N 59°52' E 030°13'0 0.0
2017-Feb-21 17:33N 59°52' E 030°13'0 0.0
2017-Feb-21 16:33N 59°52' E 030°13'0 0.0
2017-Feb-21 15:33N 59°52' E 030°13'0 0.0
2017-Feb-21 14:33N 59°52' E 030°13'0 0.1
2017-Feb-21 13:33N 59°52' E 030°13'1 1.4
2017-Feb-21 12:33N 59°53' E 030°11'1 1.2
2017-Feb-21 11:33N 59°53' E 030°13'0 0.0
2017-Feb-21 10:33N 59°53' E 030°13'0 0.0
2017-Feb-21 09:33N 59°53' E 030°13'0 0.0
2017-Feb-21 08:33N 59°53' E 030°13'0 0.0
2017-Feb-21 07:33N 59°53' E 030°13'0 0.0
2017-Feb-21 06:33N 59°53' E 030°13'0 0.0
2017-Feb-21 05:33N 59°53' E 030°13'0 0.0
2017-Feb-21 04:33N 59°53' E 030°13'0 0.0
2017-Feb-21 03:33N 59°53' E 030°13'0 0.0
2017-Feb-21 02:33N 59°53' E 030°13'0 0.0
2017-Feb-21 01:33N 59°53' E 030°13'0 0.0
2017-Feb-21 00:33N 59°53' E 030°13'0 0.0
2017-Feb-20 23:33N 59°53' E 030°13'0 0.0
2017-Feb-20 22:33N 59°53' E 030°13'0 0.0
2017-Feb-20 21:33N 59°53' E 030°13'0 0.0
2017-Feb-20 20:33N 59°53' E 030°13'0 0.0
2017-Feb-20 19:33N 59°53' E 030°13'0 0.0
2017-Feb-20 18:33N 59°53' E 030°13'0 0.0
2017-Feb-20 17:33N 59°53' E 030°13'0 0.0
2017-Feb-20 16:33N 59°53' E 030°13'0 0.0
2017-Feb-20 15:33N 59°53' E 030°13'0 0.0
2017-Feb-20 14:33N 59°53' E 030°13'0 0.0
2017-Feb-20 13:33N 59°53' E 030°13'0 0.0
2017-Feb-20 12:33N 59°53' E 030°13'3 3.4
2017-Feb-20 11:33N 59°54' E 030°07'9 9.3
2017-Feb-20 10:33N 59°57' E 029°50'10 9.5
2017-Feb-20 09:33N 60°01' E 029°32'2 1.5
2017-Feb-20 08:17N 60°01' E 029°29'4 0.4
2017-Feb-19 22:20N 60°01' E 029°20'7 8.6
2017-Feb-19 21:33N 60°01' E 029°07'2 1.8
2017-Feb-19 20:33N 60°00' E 029°04'0 0.1
2017-Feb-19 19:33N 60°00' E 029°03'0 0.2
2017-Feb-19 18:33N 60°00' E 029°03'0 0.1
2017-Feb-19 17:33N 60°00' E 029°03'0 0.2
2017-Feb-19 16:33N 60°00' E 029°03'5 4.6
2017-Feb-19 15:33N 60°00' E 028°53'5 5.1
2017-Feb-19 14:33N 60°01' E 028°43'4 4.3
2017-Feb-19 13:33N 60°01' E 028°35'10 9.8
2017-Feb-19 12:33N 60°06' E 028°18'3 3.2
2017-Feb-19 11:33N 60°07' E 028°12'2 1.7
2017-Feb-19 10:33N 60°08' E 028°09'1212.4
2017-Feb-19 09:33N 60°10' E 027°44'1713.6
2017-Feb-19 08:21N 60°01' E 027°16'1213.1
2017-Feb-19 07:27N 59°59' E 026°53'1213.4
2017-Feb-19 06:33N 59°58' E 026°29'2511.3
2017-Feb-19 04:22N 59°39' E 027°00'1012.3
2017-Feb-19 03:33N 59°35' E 027°18'8 8.3
2017-Feb-19 02:33N 59°31' E 027°33'6 5.6
2017-Feb-19 01:33N 59°28' E 027°42'1 0.7
2017-Feb-19 00:33N 59°28' E 027°43'2 2.3
2017-Feb-18 23:33N 59°25' E 027°44'0 0.0
2017-Feb-18 22:27N 59°25' E 027°44'0 0.0
2017-Feb-18 21:30N 59°25' E 027°44'0 0.0
2017-Feb-18 20:30N 59°25' E 027°44'0 0.0
2017-Feb-18 19:30N 59°25' E 027°44'0 0.0
2017-Feb-18 18:33N 59°25' E 027°44'0 0.0
2017-Feb-18 17:18N 59°25' E 027°44'0 0.0
2017-Feb-18 16:33N 59°25' E 027°44'0 0.0
2017-Feb-18 15:33N 59°25' E 027°44'0 0.0
2017-Feb-18 14:33N 59°25' E 027°44'0 0.0
2017-Feb-18 13:33N 59°25' E 027°44'0 0.0
2017-Feb-18 12:33N 59°25' E 027°44'0 0.0
2017-Feb-18 11:24N 59°25' E 027°44'0 0.0
2017-Feb-18 10:27N 59°25' E 027°44'0 0.0
2017-Feb-18 09:27N 59°25' E 027°44'0 0.0
2017-Feb-18 08:24N 59°25' E 027°44'0 0.0
2017-Feb-18 07:30N 59°25' E 027°44'0 0.0
2017-Feb-18 06:30N 59°25' E 027°44'0 0.0
2017-Feb-18 05:33N 59°25' E 027°44'0 0.0
2017-Feb-18 04:30N 59°25' E 027°44'0 0.0
2017-Feb-18 03:33N 59°25' E 027°44'0 0.0
2017-Feb-18 02:33N 59°25' E 027°44'0 0.0
2017-Feb-18 01:33N 59°25' E 027°44'0 0.0
2017-Feb-18 00:33N 59°25' E 027°44'0 0.0
2017-Feb-17 23:24N 59°25' E 027°44'0 0.0
2017-Feb-17 22:33N 59°25' E 027°44'0 0.0
2017-Feb-17 21:24N 59°25' E 027°44'0 0.0
2017-Feb-17 20:27N 59°25' E 027°44'0 0.3
2017-Feb-17 19:33N 59°26' E 027°44'5 4.6
2017-Feb-17 18:33N 59°28' E 027°37'6 6.4
2017-Feb-17 17:33N 59°32' E 027°26'3611.4
2017-Feb-17 14:24N 59°53' E 026°29'8 9.5
2017-Feb-17 13:33N 60°01' E 026°32'1111.1
2017-Feb-17 12:33N 59°60' E 026°54'1110.6
2017-Feb-17 11:33N 60°03' E 027°14'1211.4
2017-Feb-17 10:32N 60°09' E 027°34'1010.4
2017-Feb-17 09:33N 60°11' E 027°54'9 9.0
2017-Feb-17 08:33N 60°08' E 028°12'8 8.3
2017-Feb-17 07:33N 60°04' E 028°27'7 7.5
2017-Feb-17 06:33N 60°04' E 028°41'2 2.4
2017-Feb-17 05:33N 60°03' E 028°46'2 2.2
2017-Feb-17 04:33N 60°03' E 028°50'0 0.1
2017-Feb-17 03:33N 60°03' E 028°50'0 0.0
2017-Feb-17 02:33N 60°03' E 028°50'0 0.0
2017-Feb-17 01:33N 60°03' E 028°50'1 1.4
2017-Feb-17 00:33N 60°03' E 028°53'22 7.3
2017-Feb-16 21:33N 60°00' E 029°37'9 8.7
2017-Feb-16 20:33N 59°57' E 029°53'8 8.2
2017-Feb-16 19:33N 59°54' E 030°08'3 3.0
2017-Feb-16 18:33N 59°53' E 030°13'0 0.0
2017-Feb-16 17:33N 59°53' E 030°13'0 0.0
2017-Feb-16 16:33N 59°53' E 030°13'0 0.0
2017-Feb-16 15:33N 59°53' E 030°13'0 0.0
2017-Feb-16 14:33N 59°53' E 030°13'0 0.0
2017-Feb-16 13:33N 59°53' E 030°13'0 0.0
2017-Feb-16 12:30N 59°53' E 030°13'0 0.0
2017-Feb-16 11:33N 59°53' E 030°13'0 0.0
2017-Feb-16 10:33N 59°53' E 030°13'0 0.0
2017-Feb-16 09:30N 59°53' E 030°13'0 0.0
2017-Feb-16 08:30N 59°53' E 030°13'0 0.0
2017-Feb-16 07:33N 59°53' E 030°13'0 0.0
2017-Feb-16 06:33N 59°53' E 030°13'0 0.0
2017-Feb-16 05:33N 59°53' E 030°13'0 0.0
2017-Feb-16 04:33N 59°53' E 030°13'0 0.0
2017-Feb-16 03:33N 59°53' E 030°13'0 0.0
2017-Feb-16 02:33N 59°53' E 030°13'0 0.0
2017-Feb-16 01:33N 59°53' E 030°13'0 0.0
2017-Feb-16 00:33N 59°53' E 030°13'0 0.0
2017-Feb-15 23:33N 59°53' E 030°13'0 0.0
2017-Feb-15 22:33N 59°53' E 030°13'0 0.0
2017-Feb-15 21:33N 59°53' E 030°13'0 0.0
2017-Feb-15 20:33N 59°53' E 030°13'0 0.0
2017-Feb-15 19:33N 59°53' E 030°13'0 0.0
2017-Feb-15 18:30N 59°53' E 030°13'0 0.0
2017-Feb-15 17:33N 59°53' E 030°13'0 0.0
2017-Feb-15 16:34N 59°53' E 030°13'2 2.2
2017-Feb-15 15:34N 59°53' E 030°09'8 8.3
2017-Feb-15 14:34N 59°57' E 029°54'1110.8
2017-Feb-15 13:33N 60°01' E 029°34'6 6.3
2017-Feb-15 12:33N 60°01' E 029°21'0 0.2
2017-Feb-15 11:30N 60°01' E 029°21'7 7.7
2017-Feb-15 10:33N 60°02' E 029°06'4 3.6
2017-Feb-15 09:33N 60°02' E 028°59'1111.0
2017-Feb-15 08:34N 60°02' E 028°37'9 9.5
2017-Feb-15 07:34N 60°06' E 028°19'8 7.7
2017-Feb-15 06:33N 60°09' E 028°05'1211.9
2017-Feb-15 05:33N 60°09' E 027°41'1313.4
2017-Feb-15 04:33N 60°02' E 027°18'1312.6
2017-Feb-15 03:33N 59°58' E 026°54'1311.6
2017-Feb-15 02:28N 59°56' E 026°29'1511.8
2017-Feb-15 01:10N 59°43' E 026°46'813.4
2017-Feb-15 00:33N 59°40' E 027°01'1313.1
2017-Feb-14 23:33N 59°36' E 027°26'9 9.5
2017-Feb-14 22:33N 59°30' E 027°40'4 4.3
2017-Feb-14 21:33N 59°26' E 027°44'1 0.4
2017-Feb-14 20:24N 59°25' E 027°44'0 0.0
2017-Feb-14 19:30N 59°25' E 027°44'0 0.0
2017-Feb-14 17:33N 59°25' E 027°44'0 0.0
2017-Feb-14 16:33N 59°25' E 027°44'0 0.0
2017-Feb-14 15:33N 59°25' E 027°44'0 0.0
2017-Feb-14 14:33N 59°25' E 027°44'0 0.0
2017-Feb-14 13:33N 59°25' E 027°44'0 0.0
2017-Feb-14 12:33N 59°25' E 027°44'0 0.0
2017-Feb-14 11:33N 59°25' E 027°44'0 0.0
2017-Feb-14 10:24N 59°25' E 027°44'0 0.0
2017-Feb-14 09:24N 59°25' E 027°44'0 0.0
2017-Feb-14 08:27N 59°25' E 027°44'0 0.0
2017-Feb-14 07:27N 59°25' E 027°44'0 0.0
2017-Feb-14 06:30N 59°25' E 027°44'0 0.0
2017-Feb-14 05:30N 59°25' E 027°44'0 0.0
2017-Feb-14 04:30N 59°25' E 027°44'0 0.0
2017-Feb-14 03:30N 59°25' E 027°44'0 0.0
2017-Feb-14 02:33N 59°25' E 027°44'0 0.0
2017-Feb-14 01:33N 59°25' E 027°44'0 0.0
2017-Feb-14 00:33N 59°25' E 027°44'0 0.0
2017-Feb-13 23:33N 59°25' E 027°44'0 0.0
2017-Feb-13 21:33N 59°25' E 027°44'0 0.0
2017-Feb-13 20:21N 59°25' E 027°44'0 0.0
2017-Feb-13 19:24N 59°25' E 027°44'0 0.0
2017-Feb-13 18:27N 59°25' E 027°44'0 0.0
2017-Feb-13 17:27N 59°25' E 027°44'0 0.0
2017-Feb-13 16:27N 59°25' E 027°44'0 0.0
2017-Feb-13 15:30N 59°25' E 027°44'0 0.0
2017-Feb-13 14:30N 59°25' E 027°44'0 0.0
2017-Feb-13 13:30N 59°25' E 027°44'0 0.0
2017-Feb-13 12:34N 59°25' E 027°44'0 0.1
2017-Feb-13 11:33N 59°26' E 027°44'4 4.3
2017-Feb-13 10:34N 59°29' E 027°41'4 3.9
2017-Feb-13 09:34N 59°33' E 027°38'0 0.4
2017-Feb-13 08:33N 59°33' E 027°38'0 0.1
2017-Feb-13 07:33N 59°33' E 027°37'0 0.1
2017-Feb-13 06:33N 59°33' E 027°37'0 0.0
2017-Feb-13 05:33N 59°33' E 027°37'0 0.0
2017-Feb-13 04:33N 59°33' E 027°37'0 0.2
2017-Feb-13 03:33N 59°33' E 027°37'0 0.3
2017-Feb-13 02:33N 59°33' E 027°36'0 0.3
2017-Feb-13 01:33N 59°33' E 027°35'0 0.4
2017-Feb-13 00:33N 59°33' E 027°35'0 0.4
2017-Feb-12 23:33N 59°33' E 027°34'0 0.4
2017-Feb-12 22:33N 59°32' E 027°33'0 0.3
2017-Feb-12 21:33N 59°32' E 027°33'0 0.3
2017-Feb-12 20:33N 59°32' E 027°32'0 0.3
2017-Feb-12 19:33N 59°32' E 027°31'0 0.3
2017-Feb-12 18:33N 59°32' E 027°31'0 0.3
2017-Feb-12 17:33N 59°32' E 027°30'0 0.3
2017-Feb-12 16:17N 59°32' E 027°30'2 2.3
2017-Feb-12 15:33N 59°33' E 027°26'2410.3
2017-Feb-12 13:14N 59°43' E 026°44'811.1
2017-Feb-12 12:28N 59°49' E 026°31'1111.9
2017-Feb-12 11:32N 59°60' E 026°30'9 9.5
2017-Feb-12 10:33N 60°00' E 026°48'1110.7
2017-Feb-12 09:31N 60°01' E 027°10'1010.9
2017-Feb-12 08:33N 60°07' E 027°28'1010.5
2017-Feb-12 07:33N 60°12' E 027°47'1110.7
2017-Feb-12 06:33N 60°09' E 028°08'10 9.6
2017-Feb-12 05:33N 60°05' E 028°25'9 9.1
2017-Feb-12 04:33N 60°03' E 028°43'6 5.7
2017-Feb-12 03:33N 60°03' E 028°54'18 7.5
2017-Feb-12 01:10N 60°02' E 029°30'2 3.2
2017-Feb-12 00:26N 60°01' E 029°34'5 5.9
2017-Feb-11 23:33N 59°59' E 029°44'6 5.6
2017-Feb-11 22:33N 59°57' E 029°54'  
Track history (hours):
 
Tides and Currents Weather Stations Pressure Air Temp Water Temp Dewpoint Dewpoint Depression Visibility Wind Speed Wind Dir Waves Ship Positions

Vidnoe

Last reported at 2017-Feb-21 22:33 UTC. Time now 2017-Feb-21 23:32 UTC.
Position N 59°52' E 030°13'.

Length 115 m; beam 17 m.

Type: Tanker. MMSI: 273516400.

Date/timePositionNaut miles runAvg speedWind from/ knotsBaromVisibWave heightAir tempDewpointWater temp
2017-Feb-21 22:33N 59°52' E 030°13'0 0.0
2017-Feb-21 21:33N 59°52' E 030°13'0 0.0
2017-Feb-21 20:33N 59°52' E 030°13'0 0.0
2017-Feb-21 19:33N 59°52' E 030°13'0 0.0
2017-Feb-21 18:33N 59°52' E 030°13'0 0.0
2017-Feb-21 17:33N 59°52' E 030°13'0 0.0
2017-Feb-21 16:33N 59°52' E 030°13'0 0.0
2017-Feb-21 15:33N 59°52' E 030°13'0 0.0
2017-Feb-21 14:33N 59°52' E 030°13'0 0.1
2017-Feb-21 13:33N 59°52' E 030°13'1 1.4
2017-Feb-21 12:33N 59°53' E 030°11'1 1.2
2017-Feb-21 11:33N 59°53' E 030°13'0 0.0
2017-Feb-21 10:33N 59°53' E 030°13'0 0.0
2017-Feb-21 09:33N 59°53' E 030°13'0 0.0
2017-Feb-21 08:33N 59°53' E 030°13'0 0.0
2017-Feb-21 07:33N 59°53' E 030°13'0 0.0
2017-Feb-21 06:33N 59°53' E 030°13'0 0.0
2017-Feb-21 05:33N 59°53' E 030°13'0 0.0
2017-Feb-21 04:33N 59°53' E 030°13'0 0.0
2017-Feb-21 03:33N 59°53' E 030°13'0 0.0
2017-Feb-21 02:33N 59°53' E 030°13'0 0.0
2017-Feb-21 01:33N 59°53' E 030°13'0 0.0
2017-Feb-21 00:33N 59°53' E 030°13'0 0.0
2017-Feb-20 23:33N 59°53' E 030°13'0 0.0
2017-Feb-20 22:33N 59°53' E 030°13'0 0.0
2017-Feb-20 21:33N 59°53' E 030°13'0 0.0
2017-Feb-20 20:33N 59°53' E 030°13'0 0.0
2017-Feb-20 19:33N 59°53' E 030°13'0 0.0
2017-Feb-20 18:33N 59°53' E 030°13'0 0.0
2017-Feb-20 17:33N 59°53' E 030°13'0 0.0
2017-Feb-20 16:33N 59°53' E 030°13'0 0.0
2017-Feb-20 15:33N 59°53' E 030°13'0 0.0
2017-Feb-20 14:33N 59°53' E 030°13'0 0.0
2017-Feb-20 13:33N 59°53' E 030°13'0 0.0
2017-Feb-20 12:33N 59°53' E 030°13'3 3.4
2017-Feb-20 11:33N 59°54' E 030°07'9 9.3
2017-Feb-20 10:33N 59°57' E 029°50'10 9.5
2017-Feb-20 09:33N 60°01' E 029°32'2 1.5
2017-Feb-20 08:17N 60°01' E 029°29'4 0.4
2017-Feb-19 22:20N 60°01' E 029°20'7 8.6
2017-Feb-19 21:33N 60°01' E 029°07'2 1.8
2017-Feb-19 20:33N 60°00' E 029°04'0 0.1
2017-Feb-19 19:33N 60°00' E 029°03'0 0.2
2017-Feb-19 18:33N 60°00' E 029°03'0 0.1
2017-Feb-19 17:33N 60°00' E 029°03'0 0.2
2017-Feb-19 16:33N 60°00' E 029°03'5 4.6
2017-Feb-19 15:33N 60°00' E 028°53'5 5.1
2017-Feb-19 14:33N 60°01' E 028°43'4 4.3
2017-Feb-19 13:33N 60°01' E 028°35'10 9.8
2017-Feb-19 12:33N 60°06' E 028°18'3 3.2
2017-Feb-19 11:33N 60°07' E 028°12'2 1.7
2017-Feb-19 10:33N 60°08' E 028°09'1212.4
2017-Feb-19 09:33N 60°10' E 027°44'1713.6
2017-Feb-19 08:21N 60°01' E 027°16'1213.1
2017-Feb-19 07:27N 59°59' E 026°53'1213.4
2017-Feb-19 06:33N 59°58' E 026°29'2511.3
2017-Feb-19 04:22N 59°39' E 027°00'1012.3
2017-Feb-19 03:33N 59°35' E 027°18'8 8.3
2017-Feb-19 02:33N 59°31' E 027°33'6 5.6
2017-Feb-19 01:33N 59°28' E 027°42'1 0.7
2017-Feb-19 00:33N 59°28' E 027°43'2 2.3
2017-Feb-18 23:33N 59°25' E 027°44'0 0.0
2017-Feb-18 22:27N 59°25' E 027°44'0 0.0
2017-Feb-18 21:30N 59°25' E 027°44'0 0.0
2017-Feb-18 20:30N 59°25' E 027°44'0 0.0
2017-Feb-18 19:30N 59°25' E 027°44'0 0.0
2017-Feb-18 18:33N 59°25' E 027°44'0 0.0
2017-Feb-18 17:18N 59°25' E 027°44'0 0.0
2017-Feb-18 16:33N 59°25' E 027°44'0 0.0
2017-Feb-18 15:33N 59°25' E 027°44'0 0.0
2017-Feb-18 14:33N 59°25' E 027°44'0 0.0
2017-Feb-18 13:33N 59°25' E 027°44'0 0.0
2017-Feb-18 12:33N 59°25' E 027°44'0 0.0
2017-Feb-18 11:24N 59°25' E 027°44'0 0.0
2017-Feb-18 10:27N 59°25' E 027°44'0 0.0
2017-Feb-18 09:27N 59°25' E 027°44'0 0.0
2017-Feb-18 08:24N 59°25' E 027°44'0 0.0
2017-Feb-18 07:30N 59°25' E 027°44'0 0.0
2017-Feb-18 06:30N 59°25' E 027°44'0 0.0
2017-Feb-18 05:33N 59°25' E 027°44'0 0.0
2017-Feb-18 04:30N 59°25' E 027°44'0 0.0
2017-Feb-18 03:33N 59°25' E 027°44'0 0.0
2017-Feb-18 02:33N 59°25' E 027°44'0 0.0
2017-Feb-18 01:33N 59°25' E 027°44'0 0.0
2017-Feb-18 00:33N 59°25' E 027°44'0 0.0
2017-Feb-17 23:24N 59°25' E 027°44'0 0.0
2017-Feb-17 22:33N 59°25' E 027°44'0 0.0
2017-Feb-17 21:24N 59°25' E 027°44'0 0.0
2017-Feb-17 20:27N 59°25' E 027°44'0 0.3
2017-Feb-17 19:33N 59°26' E 027°44'5 4.6
2017-Feb-17 18:33N 59°28' E 027°37'6 6.4
2017-Feb-17 17:33N 59°32' E 027°26'3611.4
2017-Feb-17 14:24N 59°53' E 026°29'8 9.5
2017-Feb-17 13:33N 60°01' E 026°32'1111.1
2017-Feb-17 12:33N 59°60' E 026°54'1110.6
2017-Feb-17 11:33N 60°03' E 027°14'1211.4
2017-Feb-17 10:32N 60°09' E 027°34'1010.4
2017-Feb-17 09:33N 60°11' E 027°54'9 9.0
2017-Feb-17 08:33N 60°08' E 028°12'8 8.3
2017-Feb-17 07:33N 60°04' E 028°27'7 7.5
2017-Feb-17 06:33N 60°04' E 028°41'2 2.4
2017-Feb-17 05:33N 60°03' E 028°46'2 2.2
2017-Feb-17 04:33N 60°03' E 028°50'0 0.1
2017-Feb-17 03:33N 60°03' E 028°50'0 0.0
2017-Feb-17 02:33N 60°03' E 028°50'0 0.0
2017-Feb-17 01:33N 60°03' E 028°50'1 1.4
2017-Feb-17 00:33N 60°03' E 028°53'22 7.3
2017-Feb-16 21:33N 60°00' E 029°37'9 8.7
2017-Feb-16 20:33N 59°57' E 029°53'8 8.2
2017-Feb-16 19:33N 59°54' E 030°08'3 3.0
2017-Feb-16 18:33N 59°53' E 030°13'0 0.0
2017-Feb-16 17:33N 59°53' E 030°13'0 0.0
2017-Feb-16 16:33N 59°53' E 030°13'0 0.0
2017-Feb-16 15:33N 59°53' E 030°13'0 0.0
2017-Feb-16 14:33N 59°53' E 030°13'0 0.0
2017-Feb-16 13:33N 59°53' E 030°13'0 0.0
2017-Feb-16 12:30N 59°53' E 030°13'0 0.0
2017-Feb-16 11:33N 59°53' E 030°13'0 0.0
2017-Feb-16 10:33N 59°53' E 030°13'0 0.0
2017-Feb-16 09:30N 59°53' E 030°13'0 0.0
2017-Feb-16 08:30N 59°53' E 030°13'0 0.0
2017-Feb-16 07:33N 59°53' E 030°13'0 0.0
2017-Feb-16 06:33N 59°53' E 030°13'0 0.0
2017-Feb-16 05:33N 59°53' E 030°13'0 0.0
2017-Feb-16 04:33N 59°53' E 030°13'0 0.0
2017-Feb-16 03:33N 59°53' E 030°13'0 0.0
2017-Feb-16 02:33N 59°53' E 030°13'0 0.0
2017-Feb-16 01:33N 59°53' E 030°13'0 0.0
2017-Feb-16 00:33N 59°53' E 030°13'0 0.0
2017-Feb-15 23:33N 59°53' E 030°13'0 0.0
2017-Feb-15 22:33N 59°53' E 030°13'0 0.0
2017-Feb-15 21:33N 59°53' E 030°13'0 0.0
2017-Feb-15 20:33N 59°53' E 030°13'0 0.0
2017-Feb-15 19:33N 59°53' E 030°13'0 0.0
2017-Feb-15 18:30N 59°53' E 030°13'0 0.0
2017-Feb-15 17:33N 59°53' E 030°13'0 0.0
2017-Feb-15 16:34N 59°53' E 030°13'2 2.2
2017-Feb-15 15:34N 59°53' E 030°09'8 8.3
2017-Feb-15 14:34N 59°57' E 029°54'1110.8
2017-Feb-15 13:33N 60°01' E 029°34'6 6.3
2017-Feb-15 12:33N 60°01' E 029°21'0 0.2
2017-Feb-15 11:30N 60°01' E 029°21'7 7.7
2017-Feb-15 10:33N 60°02' E 029°06'4 3.6
2017-Feb-15 09:33N 60°02' E 028°59'1111.0
2017-Feb-15 08:34N 60°02' E 028°37'9 9.5
2017-Feb-15 07:34N 60°06' E 028°19'8 7.7
2017-Feb-15 06:33N 60°09' E 028°05'1211.9
2017-Feb-15 05:33N 60°09' E 027°41'1313.4
2017-Feb-15 04:33N 60°02' E 027°18'1312.6
2017-Feb-15 03:33N 59°58' E 026°54'1311.6
2017-Feb-15 02:28N 59°56' E 026°29'1511.8
2017-Feb-15 01:10N 59°43' E 026°46'813.4
2017-Feb-15 00:33N 59°40' E 027°01'1313.1
2017-Feb-14 23:33N 59°36' E 027°26'9 9.5
2017-Feb-14 22:33N 59°30' E 027°40'4 4.3
2017-Feb-14 21:33N 59°26' E 027°44'1 0.4
2017-Feb-14 20:24N 59°25' E 027°44'0 0.0
2017-Feb-14 19:30N 59°25' E 027°44'0 0.0
2017-Feb-14 17:33N 59°25' E 027°44'0 0.0
2017-Feb-14 16:33N 59°25' E 027°44'0 0.0
2017-Feb-14 15:33N 59°25' E 027°44'0 0.0
2017-Feb-14 14:33N 59°25' E 027°44'0 0.0
2017-Feb-14 13:33N 59°25' E 027°44'0 0.0
2017-Feb-14 12:33N 59°25' E 027°44'0 0.0
2017-Feb-14 11:33N 59°25' E 027°44'0 0.0
2017-Feb-14 10:24N 59°25' E 027°44'0 0.0
2017-Feb-14 09:24N 59°25' E 027°44'0 0.0
2017-Feb-14 08:27N 59°25' E 027°44'0 0.0
2017-Feb-14 07:27N 59°25' E 027°44'0 0.0
2017-Feb-14 06:30N 59°25' E 027°44'0 0.0
2017-Feb-14 05:30N 59°25' E 027°44'0 0.0
2017-Feb-14 04:30N 59°25' E 027°44'0 0.0
2017-Feb-14 03:30N 59°25' E 027°44'0 0.0
2017-Feb-14 02:33N 59°25' E 027°44'0 0.0
2017-Feb-14 01:33N 59°25' E 027°44'0 0.0
2017-Feb-14 00:33N 59°25' E 027°44'0 0.0
2017-Feb-13 23:33N 59°25' E 027°44'0 0.0
2017-Feb-13 21:33N 59°25' E 027°44'0 0.0
2017-Feb-13 20:21N 59°25' E 027°44'0 0.0
2017-Feb-13 19:24N 59°25' E 027°44'0 0.0
2017-Feb-13 18:27N 59°25' E 027°44'0 0.0
2017-Feb-13 17:27N 59°25' E 027°44'0 0.0
2017-Feb-13 16:27N 59°25' E 027°44'0 0.0
2017-Feb-13 15:30N 59°25' E 027°44'0 0.0
2017-Feb-13 14:30N 59°25' E 027°44'0 0.0
2017-Feb-13 13:30N 59°25' E 027°44'0 0.0
2017-Feb-13 12:34N 59°25' E 027°44'0 0.1
2017-Feb-13 11:33N 59°26' E 027°44'4 4.3
2017-Feb-13 10:34N 59°29' E 027°41'4 3.9
2017-Feb-13 09:34N 59°33' E 027°38'0 0.4
2017-Feb-13 08:33N 59°33' E 027°38'0 0.1
2017-Feb-13 07:33N 59°33' E 027°37'0 0.1
2017-Feb-13 06:33N 59°33' E 027°37'0 0.0
2017-Feb-13 05:33N 59°33' E 027°37'0 0.0
2017-Feb-13 04:33N 59°33' E 027°37'0 0.2
2017-Feb-13 03:33N 59°33' E 027°37'0 0.3
2017-Feb-13 02:33N 59°33' E 027°36'0 0.3
2017-Feb-13 01:33N 59°33' E 027°35'0 0.4
2017-Feb-13 00:33N 59°33' E 027°35'0 0.4
2017-Feb-12 23:33N 59°33' E 027°34'0 0.4
2017-Feb-12 22:33N 59°32' E 027°33'0 0.3
2017-Feb-12 21:33N 59°32' E 027°33'0 0.3
2017-Feb-12 20:33N 59°32' E 027°32'0 0.3
2017-Feb-12 19:33N 59°32' E 027°31'0 0.3
2017-Feb-12 18:33N 59°32' E 027°31'0 0.3
2017-Feb-12 17:33N 59°32' E 027°30'0 0.3
2017-Feb-12 16:17N 59°32' E 027°30'2 2.3
2017-Feb-12 15:33N 59°33' E 027°26'2410.3
2017-Feb-12 13:14N 59°43' E 026°44'811.1
2017-Feb-12 12:28N 59°49' E 026°31'1111.9
2017-Feb-12 11:32N 59°60' E 026°30'9 9.5
2017-Feb-12 10:33N 60°00' E 026°48'1110.7
2017-Feb-12 09:31N 60°01' E 027°10'1010.9
2017-Feb-12 08:33N 60°07' E 027°28'1010.5
2017-Feb-12 07:33N 60°12' E 027°47'1110.7
2017-Feb-12 06:33N 60°09' E 028°08'10 9.6
2017-Feb-12 05:33N 60°05' E 028°25'9 9.1
2017-Feb-12 04:33N 60°03' E 028°43'6 5.7
2017-Feb-12 03:33N 60°03' E 028°54'18 7.5
2017-Feb-12 01:10N 60°02' E 029°30'2 3.2
2017-Feb-12 00:26N 60°01' E 029°34'5 5.9
2017-Feb-11 23:33N 59°59' E 029°44'6 5.6
2017-Feb-11 22:33N 59°57' E 029°54'  

Dump ship's entire track history